sensor_id;sensor_type;location;lat;lon;timestamp;temperature;humidity
45012;DHT22;63444;48.148;11.542;2023-06-22T00:00:49;23.20;99.90
45012;DHT22;63444;48.148;11.542;2023-06-22T00:03:17;23.10;99.90
45012;DHT22;63444;48.148;11.542;2023-06-22T00:05:42;23.10;99.90
45012;DHT22;63444;48.148;11.542;2023-06-22T00:08:08;23.10;99.90
45012;DHT22;63444;48.148;11.542;2023-06-22T00:10:33;23.10;99.90
45012;DHT22;63444;48.148;11.542;2023-06-22T00:12:59;23.00;99.90
45012;DHT22;63444;48.148;11.542;2023-06-22T00:15:24;23.10;99.90
45012;DHT22;63444;48.148;11.542;2023-06-22T00:17:51;23.00;99.90
45012;DHT22;63444;48.148;11.542;2023-06-22T00:20:16;22.90;99.90
45012;DHT22;63444;48.148;11.542;2023-06-22T00:22:44;22.90;99.90
45012;DHT22;63444;48.148;11.542;2023-06-22T00:25:10;22.80;99.90
45012;DHT22;63444;48.148;11.542;2023-06-22T00:27:36;22.80;99.90
45012;DHT22;63444;48.148;11.542;2023-06-22T00:30:02;22.80;99.90
45012;DHT22;63444;48.148;11.542;2023-06-22T00:32:28;22.80;99.90
45012;DHT22;63444;48.148;11.542;2023-06-22T00:34:54;22.70;99.90
45012;DHT22;63444;48.148;11.542;2023-06-22T00:37:19;22.70;99.90
45012;DHT22;63444;48.148;11.542;2023-06-22T00:39:48;22.60;99.90
45012;DHT22;63444;48.148;11.542;2023-06-22T00:42:14;22.70;99.90
45012;DHT22;63444;48.148;11.542;2023-06-22T00:44:39;22.70;99.90
45012;DHT22;63444;48.148;11.542;2023-06-22T00:47:06;22.60;99.90
45012;DHT22;63444;48.148;11.542;2023-06-22T00:49:32;22.70;99.90
45012;DHT22;63444;48.148;11.542;2023-06-22T00:51:57;22.70;99.90
45012;DHT22;63444;48.148;11.542;2023-06-22T00:54:24;22.60;99.90
45012;DHT22;63444;48.148;11.542;2023-06-22T00:56:58;22.70;99.90
45012;DHT22;63444;48.148;11.542;2023-06-22T00:59:26;22.70;99.90
45012;DHT22;63444;48.148;11.542;2023-06-22T01:01:51;22.60;99.90
45012;DHT22;63444;48.148;11.542;2023-06-22T01:04:17;22.60;99.90
45012;DHT22;63444;48.148;11.542;2023-06-22T01:06:54;22.60;99.90
45012;DHT22;63444;48.148;11.542;2023-06-22T01:09:30;22.60;99.90
45012;DHT22;63444;48.148;11.542;2023-06-22T01:12:02;22.50;99.90
45012;DHT22;63444;48.148;11.542;2023-06-22T01:14:42;22.50;99.90
45012;DHT22;63444;48.148;11.542;2023-06-22T01:17:10;22.50;99.90
45012;DHT22;63444;48.148;11.542;2023-06-22T01:22:15;22.30;99.90
45012;DHT22;63444;48.148;11.542;2023-06-22T01:24:45;22.30;99.90
45012;DHT22;63444;48.148;11.542;2023-06-22T01:29:56;22.20;99.90
45012;DHT22;63444;48.148;11.542;2023-06-22T01:32:31;22.20;99.90
45012;DHT22;63444;48.148;11.542;2023-06-22T01:35:01;22.20;99.90
45012;DHT22;63444;48.148;11.542;2023-06-22T01:37:28;22.20;99.90
45012;DHT22;63444;48.148;11.542;2023-06-22T01:39:55;22.20;99.90
45012;DHT22;63444;48.148;11.542;2023-06-22T01:42:21;22.10;99.90
45012;DHT22;63444;48.148;11.542;2023-06-22T01:44:47;22.10;99.90
45012;DHT22;63444;48.148;11.542;2023-06-22T01:47:13;22.20;99.90
45012;DHT22;63444;48.148;11.542;2023-06-22T01:49:40;22.10;99.90
45012;DHT22;63444;48.148;11.542;2023-06-22T01:52:07;22.10;99.90
45012;DHT22;63444;48.148;11.542;2023-06-22T01:54:32;22.10;99.90
45012;DHT22;63444;48.148;11.542;2023-06-22T01:56:58;22.10;99.90
45012;DHT22;63444;48.148;11.542;2023-06-22T01:59:29;22.10;99.90
45012;DHT22;63444;48.148;11.542;2023-06-22T02:02:09;22.10;99.90
45012;DHT22;63444;48.148;11.542;2023-06-22T02:05:25;22.00;99.90
45012;DHT22;63444;48.148;11.542;2023-06-22T02:07:43;22.00;99.90
45012;DHT22;63444;48.148;11.542;2023-06-22T02:10:12;22.00;99.90
45012;DHT22;63444;48.148;11.542;2023-06-22T02:12:39;22.00;99.90
45012;DHT22;63444;48.148;11.542;2023-06-22T02:15:08;22.00;99.90
45012;DHT22;63444;48.148;11.542;2023-06-22T02:17:34;22.00;99.90
45012;DHT22;63444;48.148;11.542;2023-06-22T02:20:02;21.90;99.90
45012;DHT22;63444;48.148;11.542;2023-06-22T02:22:34;22.00;99.90
45012;DHT22;63444;48.148;11.542;2023-06-22T02:24:59;22.00;99.90
45012;DHT22;63444;48.148;11.542;2023-06-22T02:27:25;21.90;99.90
45012;DHT22;63444;48.148;11.542;2023-06-22T02:29:50;21.90;99.90
45012;DHT22;63444;48.148;11.542;2023-06-22T02:32:16;22.00;99.90
45012;DHT22;63444;48.148;11.542;2023-06-22T02:34:43;22.00;99.90
45012;DHT22;63444;48.148;11.542;2023-06-22T02:37:13;22.00;99.90
45012;DHT22;63444;48.148;11.542;2023-06-22T02:39:40;21.90;99.90
45012;DHT22;63444;48.148;11.542;2023-06-22T02:42:05;21.90;99.90
45012;DHT22;63444;48.148;11.542;2023-06-22T02:44:31;21.90;99.90
45012;DHT22;63444;48.148;11.542;2023-06-22T02:46:56;21.90;99.90
45012;DHT22;63444;48.148;11.542;2023-06-22T02:49:23;21.90;99.90
45012;DHT22;63444;48.148;11.542;2023-06-22T02:51:49;21.90;99.90
45012;DHT22;63444;48.148;11.542;2023-06-22T02:54:14;21.90;99.90
45012;DHT22;63444;48.148;11.542;2023-06-22T02:56:40;21.90;99.90
45012;DHT22;63444;48.148;11.542;2023-06-22T02:59:06;21.90;99.90
45012;DHT22;63444;48.148;11.542;2023-06-22T03:01:32;21.90;99.90
45012;DHT22;63444;48.148;11.542;2023-06-22T03:04:08;21.90;99.90
45012;DHT22;63444;48.148;11.542;2023-06-22T03:06:34;21.80;99.90
45012;DHT22;63444;48.148;11.542;2023-06-22T03:09:01;21.70;99.90
45012;DHT22;63444;48.148;11.542;2023-06-22T03:11:28;21.70;99.90
45012;DHT22;63444;48.148;11.542;2023-06-22T03:13:54;21.70;99.90
45012;DHT22;63444;48.148;11.542;2023-06-22T03:16:20;21.70;99.90
45012;DHT22;63444;48.148;11.542;2023-06-22T03:18:45;21.80;99.90
45012;DHT22;63444;48.148;11.542;2023-06-22T03:21:11;21.70;99.90
45012;DHT22;63444;48.148;11.542;2023-06-22T03:23:36;21.70;99.90
45012;DHT22;63444;48.148;11.542;2023-06-22T03:26:02;21.80;99.90
45012;DHT22;63444;48.148;11.542;2023-06-22T03:28:29;21.80;99.90
45012;DHT22;63444;48.148;11.542;2023-06-22T03:30:57;21.60;99.90
45012;DHT22;63444;48.148;11.542;2023-06-22T03:33:23;21.70;99.90
45012;DHT22;63444;48.148;11.542;2023-06-22T03:35:49;21.70;99.90
45012;DHT22;63444;48.148;11.542;2023-06-22T03:38:16;21.60;99.90
45012;DHT22;63444;48.148;11.542;2023-06-22T03:40:42;21.60;99.90
45012;DHT22;63444;48.148;11.542;2023-06-22T03:43:08;21.60;99.90
45012;DHT22;63444;48.148;11.542;2023-06-22T03:45:34;21.50;99.90
45012;DHT22;63444;48.148;11.542;2023-06-22T03:48:00;21.40;99.90
45012;DHT22;63444;48.148;11.542;2023-06-22T03:50:26;21.40;99.90
45012;DHT22;63444;48.148;11.542;2023-06-22T03:52:51;21.30;99.90
45012;DHT22;63444;48.148;11.542;2023-06-22T03:55:19;21.30;99.90
45012;DHT22;63444;48.148;11.542;2023-06-22T03:57:44;21.30;99.90
45012;DHT22;63444;48.148;11.542;2023-06-22T04:00:10;21.30;99.90
45012;DHT22;63444;48.148;11.542;2023-06-22T04:02:36;21.30;99.90
45012;DHT22;63444;48.148;11.542;2023-06-22T04:05:02;21.30;99.90
45012;DHT22;63444;48.148;11.542;2023-06-22T04:07:27;21.40;99.90
45012;DHT22;63444;48.148;11.542;2023-06-22T04:09:53;21.40;99.90
45012;DHT22;63444;48.148;11.542;2023-06-22T04:12:18;21.50;99.90
45012;DHT22;63444;48.148;11.542;2023-06-22T04:14:44;21.40;99.90
45012;DHT22;63444;48.148;11.542;2023-06-22T04:17:09;21.40;99.90
45012;DHT22;63444;48.148;11.542;2023-06-22T04:19:35;21.40;99.90
45012;DHT22;63444;48.148;11.542;2023-06-22T04:22:00;21.40;99.90
45012;DHT22;63444;48.148;11.542;2023-06-22T04:24:26;21.40;99.90
45012;DHT22;63444;48.148;11.542;2023-06-22T04:26:51;21.40;99.90
45012;DHT22;63444;48.148;11.542;2023-06-22T04:29:20;21.40;99.90
45012;DHT22;63444;48.148;11.542;2023-06-22T04:31:46;21.40;99.90
45012;DHT22;63444;48.148;11.542;2023-06-22T04:34:13;21.40;99.90
45012;DHT22;63444;48.148;11.542;2023-06-22T04:36:41;21.50;99.90
45012;DHT22;63444;48.148;11.542;2023-06-22T04:39:09;21.40;99.90
45012;DHT22;63444;48.148;11.542;2023-06-22T04:41:39;21.40;99.90
45012;DHT22;63444;48.148;11.542;2023-06-22T04:44:15;21.50;99.90
45012;DHT22;63444;48.148;11.542;2023-06-22T04:46:54;21.50;99.90
45012;DHT22;63444;48.148;11.542;2023-06-22T04:49:26;21.50;99.90
45012;DHT22;63444;48.148;11.542;2023-06-22T04:52:02;21.60;99.90
45012;DHT22;63444;48.148;11.542;2023-06-22T04:54:28;21.60;99.90
45012;DHT22;63444;48.148;11.542;2023-06-22T04:56:53;21.60;99.90
45012;DHT22;63444;48.148;11.542;2023-06-22T04:59:27;21.60;99.90
45012;DHT22;63444;48.148;11.542;2023-06-22T05:01:59;21.60;99.90
45012;DHT22;63444;48.148;11.542;2023-06-22T05:04:26;21.70;99.90
45012;DHT22;63444;48.148;11.542;2023-06-22T05:06:54;21.80;99.90
45012;DHT22;63444;48.148;11.542;2023-06-22T05:09:20;21.80;99.90
45012;DHT22;63444;48.148;11.542;2023-06-22T05:11:46;21.80;99.90
45012;DHT22;63444;48.148;11.542;2023-06-22T05:14:12;21.80;99.90
45012;DHT22;63444;48.148;11.542;2023-06-22T05:16:38;21.80;99.90
45012;DHT22;63444;48.148;11.542;2023-06-22T05:19:04;21.90;99.90
45012;DHT22;63444;48.148;11.542;2023-06-22T05:21:30;21.90;99.90
45012;DHT22;63444;48.148;11.542;2023-06-22T05:23:57;21.90;99.90
45012;DHT22;63444;48.148;11.542;2023-06-22T05:26:28;22.00;99.90
45012;DHT22;63444;48.148;11.542;2023-06-22T05:28:54;22.00;99.90
45012;DHT22;63444;48.148;11.542;2023-06-22T05:31:20;22.00;99.90
45012;DHT22;63444;48.148;11.542;2023-06-22T05:33:46;22.10;99.90
45012;DHT22;63444;48.148;11.542;2023-06-22T05:36:12;22.20;99.90
45012;DHT22;63444;48.148;11.542;2023-06-22T05:38:38;22.30;99.90
45012;DHT22;63444;48.148;11.542;2023-06-22T05:41:04;22.40;99.90
45012;DHT22;63444;48.148;11.542;2023-06-22T05:43:30;22.50;99.90
45012;DHT22;63444;48.148;11.542;2023-06-22T05:45:57;22.60;99.90
45012;DHT22;63444;48.148;11.542;2023-06-22T05:48:22;22.70;99.90
45012;DHT22;63444;48.148;11.542;2023-06-22T05:50:48;22.90;99.90
45012;DHT22;63444;48.148;11.542;2023-06-22T05:53:14;23.20;99.90
45012;DHT22;63444;48.148;11.542;2023-06-22T05:55:39;23.50;99.90
45012;DHT22;63444;48.148;11.542;2023-06-22T05:58:05;23.90;99.90
45012;DHT22;63444;48.148;11.542;2023-06-22T06:00:32;24.30;99.90
45012;DHT22;63444;48.148;11.542;2023-06-22T06:02:57;24.70;99.90
45012;DHT22;63444;48.148;11.542;2023-06-22T06:05:29;25.20;99.90
45012;DHT22;63444;48.148;11.542;2023-06-22T06:07:55;25.70;99.90
45012;DHT22;63444;48.148;11.542;2023-06-22T06:10:21;26.10;99.90
45012;DHT22;63444;48.148;11.542;2023-06-22T06:12:46;26.60;99.60
45012;DHT22;63444;48.148;11.542;2023-06-22T06:15:12;27.10;98.60
45012;DHT22;63444;48.148;11.542;2023-06-22T06:17:46;27.40;97.70
45012;DHT22;63444;48.148;11.542;2023-06-22T06:20:11;27.80;97.10
45012;DHT22;63444;48.148;11.542;2023-06-22T06:22:37;28.20;96.20
45012;DHT22;63444;48.148;11.542;2023-06-22T06:25:03;28.60;95.70
45012;DHT22;63444;48.148;11.542;2023-06-22T06:27:30;28.90;94.60
45012;DHT22;63444;48.148;11.542;2023-06-22T06:29:55;29.10;94.10
45012;DHT22;63444;48.148;11.542;2023-06-22T06:32:21;29.30;93.50
45012;DHT22;63444;48.148;11.542;2023-06-22T06:34:46;29.60;93.40
45012;DHT22;63444;48.148;11.542;2023-06-22T06:37:12;29.80;92.80
45012;DHT22;63444;48.148;11.542;2023-06-22T06:39:37;30.10;92.40
45012;DHT22;63444;48.148;11.542;2023-06-22T06:42:04;30.40;92.00
45012;DHT22;63444;48.148;11.542;2023-06-22T06:44:30;30.50;91.40
45012;DHT22;63444;48.148;11.542;2023-06-22T06:46:55;30.70;91.20
45012;DHT22;63444;48.148;11.542;2023-06-22T06:49:21;30.80;90.90
45012;DHT22;63444;48.148;11.542;2023-06-22T06:51:46;30.90;90.70
45012;DHT22;63444;48.148;11.542;2023-06-22T06:54:12;30.90;90.60
45012;DHT22;63444;48.148;11.542;2023-06-22T06:56:38;31.00;90.50
45012;DHT22;63444;48.148;11.542;2023-06-22T06:59:03;30.90;90.40
45012;DHT22;63444;48.148;11.542;2023-06-22T07:01:29;30.80;90.40
45012;DHT22;63444;48.148;11.542;2023-06-22T07:03:59;30.80;90.30
45012;DHT22;63444;48.148;11.542;2023-06-22T07:06:24;30.60;90.30
45012;DHT22;63444;48.148;11.542;2023-06-22T07:08:55;30.50;90.60
45012;DHT22;63444;48.148;11.542;2023-06-22T07:11:20;30.50;90.60
45012;DHT22;63444;48.148;11.542;2023-06-22T07:13:46;30.40;90.60
45012;DHT22;63444;48.148;11.542;2023-06-22T07:16:11;30.30;90.70
45012;DHT22;63444;48.148;11.542;2023-06-22T07:18:39;30.30;90.80
45012;DHT22;63444;48.148;11.542;2023-06-22T07:21:05;30.50;90.70
45012;DHT22;63444;48.148;11.542;2023-06-22T07:23:32;30.60;90.60
45012;DHT22;63444;48.148;11.542;2023-06-22T07:25:58;30.70;90.20
45012;DHT22;63444;48.148;11.542;2023-06-22T07:28:27;30.60;90.30
45012;DHT22;63444;48.148;11.542;2023-06-22T07:30:53;30.70;90.40
45012;DHT22;63444;48.148;11.542;2023-06-22T07:33:19;30.80;90.20
45012;DHT22;63444;48.148;11.542;2023-06-22T07:35:45;30.90;90.00
45012;DHT22;63444;48.148;11.542;2023-06-22T07:38:12;30.90;89.90
45012;DHT22;63444;48.148;11.542;2023-06-22T07:40:40;31.00;89.80
45012;DHT22;63444;48.148;11.542;2023-06-22T07:43:07;31.20;88.60
45012;DHT22;63444;48.148;11.542;2023-06-22T07:45:32;31.10;88.80
45012;DHT22;63444;48.148;11.542;2023-06-22T07:48:00;31.10;88.90
45012;DHT22;63444;48.148;11.542;2023-06-22T07:50:26;31.10;89.40
45012;DHT22;63444;48.148;11.542;2023-06-22T07:52:51;31.20;88.70
45012;DHT22;63444;48.148;11.542;2023-06-22T07:55:18;31.40;88.10
45012;DHT22;63444;48.148;11.542;2023-06-22T07:57:43;31.40;87.80
45012;DHT22;63444;48.148;11.542;2023-06-22T08:00:10;31.50;88.10
45012;DHT22;63444;48.148;11.542;2023-06-22T08:02:41;31.70;87.40
45012;DHT22;63444;48.148;11.542;2023-06-22T08:05:08;31.90;85.90
45012;DHT22;63444;48.148;11.542;2023-06-22T08:07:38;31.80;86.10
45012;DHT22;63444;48.148;11.542;2023-06-22T08:10:08;31.80;85.70
45012;DHT22;63444;48.148;11.542;2023-06-22T08:12:35;31.70;86.00
45012;DHT22;63444;48.148;11.542;2023-06-22T08:15:01;31.70;86.10
45012;DHT22;63444;48.148;11.542;2023-06-22T08:17:26;31.60;86.20
45012;DHT22;63444;48.148;11.542;2023-06-22T08:19:52;31.50;86.20
45012;DHT22;63444;48.148;11.542;2023-06-22T08:22:17;31.50;86.40
45012;DHT22;63444;48.148;11.542;2023-06-22T08:24:44;31.60;86.30
45012;DHT22;63444;48.148;11.542;2023-06-22T08:27:10;31.60;85.20
45012;DHT22;63444;48.148;11.542;2023-06-22T08:29:40;31.80;85.10
45012;DHT22;63444;48.148;11.542;2023-06-22T08:32:08;31.90;85.00
45012;DHT22;63444;48.148;11.542;2023-06-22T08:34:34;32.00;84.80
45012;DHT22;63444;48.148;11.542;2023-06-22T08:37:00;32.20;84.20
45012;DHT22;63444;48.148;11.542;2023-06-22T08:39:26;32.20;83.40
45012;DHT22;63444;48.148;11.542;2023-06-22T08:41:53;32.20;83.50
45012;DHT22;63444;48.148;11.542;2023-06-22T08:44:19;32.10;83.30
45012;DHT22;63444;48.148;11.542;2023-06-22T08:46:45;32.00;83.50
45012;DHT22;63444;48.148;11.542;2023-06-22T08:49:10;31.90;83.90
45012;DHT22;63444;48.148;11.542;2023-06-22T08:51:36;31.80;84.10
45012;DHT22;63444;48.148;11.542;2023-06-22T08:54:04;31.90;84.00
45012;DHT22;63444;48.148;11.542;2023-06-22T08:56:30;31.80;84.00
45012;DHT22;63444;48.148;11.542;2023-06-22T08:58:56;31.80;83.90
45012;DHT22;63444;48.148;11.542;2023-06-22T09:01:21;31.80;83.40
45012;DHT22;63444;48.148;11.542;2023-06-22T09:03:47;31.80;83.50
45012;DHT22;63444;48.148;11.542;2023-06-22T09:06:21;31.90;83.20
45012;DHT22;63444;48.148;11.542;2023-06-22T09:08:47;32.00;82.40
45012;DHT22;63444;48.148;11.542;2023-06-22T09:11:13;32.10;82.60
45012;DHT22;63444;48.148;11.542;2023-06-22T09:13:38;32.20;82.60
45012;DHT22;63444;48.148;11.542;2023-06-22T09:16:04;32.40;82.30
45012;DHT22;63444;48.148;11.542;2023-06-22T09:18:30;32.60;81.90
45012;DHT22;63444;48.148;11.542;2023-06-22T09:20:56;32.70;81.10
45012;DHT22;63444;48.148;11.542;2023-06-22T09:23:22;32.80;81.00
45012;DHT22;63444;48.148;11.542;2023-06-22T09:25:47;32.80;80.80
45012;DHT22;63444;48.148;11.542;2023-06-22T09:28:14;32.80;80.50
45012;DHT22;63444;48.148;11.542;2023-06-22T09:30:39;32.80;80.20
45012;DHT22;63444;48.148;11.542;2023-06-22T09:33:05;32.80;80.20
45012;DHT22;63444;48.148;11.542;2023-06-22T09:35:31;32.80;80.60
45012;DHT22;63444;48.148;11.542;2023-06-22T09:37:56;32.80;80.40
45012;DHT22;63444;48.148;11.542;2023-06-22T09:40:22;32.80;80.50
45012;DHT22;63444;48.148;11.542;2023-06-22T09:42:47;32.80;79.70
45012;DHT22;63444;48.148;11.542;2023-06-22T09:45:13;32.80;80.00
45012;DHT22;63444;48.148;11.542;2023-06-22T09:47:39;32.70;79.50
45012;DHT22;63444;48.148;11.542;2023-06-22T09:50:05;32.80;79.40
45012;DHT22;63444;48.148;11.542;2023-06-22T09:52:31;32.80;79.40
45012;DHT22;63444;48.148;11.542;2023-06-22T09:54:57;32.80;79.60
45012;DHT22;63444;48.148;11.542;2023-06-22T09:57:22;32.80;79.60
45012;DHT22;63444;48.148;11.542;2023-06-22T09:59:48;32.80;79.20
45012;DHT22;63444;48.148;11.542;2023-06-22T10:02:13;32.90;79.40
45012;DHT22;63444;48.148;11.542;2023-06-22T10:04:39;32.90;79.70
45012;DHT22;63444;48.148;11.542;2023-06-22T10:07:05;33.00;79.90
45012;DHT22;63444;48.148;11.542;2023-06-22T10:09:31;33.00;79.20
45012;DHT22;63444;48.148;11.542;2023-06-22T10:11:57;33.00;79.40
45012;DHT22;63444;48.148;11.542;2023-06-22T10:14:22;33.00;79.70
45012;DHT22;63444;48.148;11.542;2023-06-22T10:16:49;33.00;79.50
45012;DHT22;63444;48.148;11.542;2023-06-22T10:19:15;33.00;79.60
45012;DHT22;63444;48.148;11.542;2023-06-22T10:21:40;33.10;79.70
45012;DHT22;63444;48.148;11.542;2023-06-22T10:24:06;33.00;79.70
45012;DHT22;63444;48.148;11.542;2023-06-22T10:26:32;33.10;79.50
45012;DHT22;63444;48.148;11.542;2023-06-22T10:28:58;33.10;79.70
45012;DHT22;63444;48.148;11.542;2023-06-22T10:31:24;33.10;79.80
45012;DHT22;63444;48.148;11.542;2023-06-22T10:33:50;33.00;80.10
45012;DHT22;63444;48.148;11.542;2023-06-22T10:36:16;33.00;80.00
45012;DHT22;63444;48.148;11.542;2023-06-22T10:38:41;33.10;80.20
45012;DHT22;63444;48.148;11.542;2023-06-22T10:41:07;33.10;80.60
45012;DHT22;63444;48.148;11.542;2023-06-22T10:43:32;33.20;80.60
45012;DHT22;63444;48.148;11.542;2023-06-22T10:45:58;33.30;80.50
45012;DHT22;63444;48.148;11.542;2023-06-22T10:48:23;33.40;80.60
45012;DHT22;63444;48.148;11.542;2023-06-22T10:50:49;33.40;80.50
45012;DHT22;63444;48.148;11.542;2023-06-22T10:53:14;33.40;80.50
45012;DHT22;63444;48.148;11.542;2023-06-22T10:55:40;33.40;80.00
45012;DHT22;63444;48.148;11.542;2023-06-22T10:58:05;33.40;80.00
45012;DHT22;63444;48.148;11.542;2023-06-22T11:00:31;33.30;80.30
45012;DHT22;63444;48.148;11.542;2023-06-22T11:02:57;33.30;80.50
45012;DHT22;63444;48.148;11.542;2023-06-22T11:05:23;33.30;80.00
45012;DHT22;63444;48.148;11.542;2023-06-22T11:07:49;33.30;79.80
45012;DHT22;63444;48.148;11.542;2023-06-22T11:10:15;33.30;79.90
45012;DHT22;63444;48.148;11.542;2023-06-22T11:12:40;33.30;80.20
45012;DHT22;63444;48.148;11.542;2023-06-22T11:15:08;33.20;80.80
45012;DHT22;63444;48.148;11.542;2023-06-22T11:17:34;33.10;80.40
45012;DHT22;63444;48.148;11.542;2023-06-22T11:19:59;33.00;80.60
45012;DHT22;63444;48.148;11.542;2023-06-22T11:22:25;33.00;80.60
45012;DHT22;63444;48.148;11.542;2023-06-22T11:24:51;33.10;80.80
45012;DHT22;63444;48.148;11.542;2023-06-22T11:27:17;33.00;81.00
45012;DHT22;63444;48.148;11.542;2023-06-22T11:29:42;33.00;81.40
45012;DHT22;63444;48.148;11.542;2023-06-22T11:32:08;33.00;81.50
45012;DHT22;63444;48.148;11.542;2023-06-22T11:34:33;33.00;81.60
45012;DHT22;63444;48.148;11.542;2023-06-22T11:36:59;33.00;81.80
45012;DHT22;63444;48.148;11.542;2023-06-22T11:39:25;33.10;81.50
45012;DHT22;63444;48.148;11.542;2023-06-22T11:41:50;33.20;81.10
45012;DHT22;63444;48.148;11.542;2023-06-22T11:44:16;33.30;81.20
45012;DHT22;63444;48.148;11.542;2023-06-22T11:46:41;33.40;80.70
45012;DHT22;63444;48.148;11.542;2023-06-22T11:49:07;33.40;81.40
45012;DHT22;63444;48.148;11.542;2023-06-22T11:51:33;33.50;80.60
45012;DHT22;63444;48.148;11.542;2023-06-22T11:53:58;33.40;80.40
45012;DHT22;63444;48.148;11.542;2023-06-22T11:56:24;33.40;80.30
45012;DHT22;63444;48.148;11.542;2023-06-22T11:58:50;33.40;80.70
45012;DHT22;63444;48.148;11.542;2023-06-22T12:01:15;33.40;80.90
45012;DHT22;63444;48.148;11.542;2023-06-22T12:03:41;33.40;81.30
45012;DHT22;63444;48.148;11.542;2023-06-22T12:06:08;33.40;80.50
45012;DHT22;63444;48.148;11.542;2023-06-22T12:08:34;33.50;80.60
45012;DHT22;63444;48.148;11.542;2023-06-22T12:10:59;33.50;80.30
45012;DHT22;63444;48.148;11.542;2023-06-22T12:13:25;33.40;80.20
45012;DHT22;63444;48.148;11.542;2023-06-22T12:15:51;33.40;80.20
45012;DHT22;63444;48.148;11.542;2023-06-22T12:18:18;33.30;80.40
45012;DHT22;63444;48.148;11.542;2023-06-22T12:20:46;33.30;79.70
45012;DHT22;63444;48.148;11.542;2023-06-22T12:23:11;33.40;80.00
45012;DHT22;63444;48.148;11.542;2023-06-22T12:25:37;33.50;79.70
45012;DHT22;63444;48.148;11.542;2023-06-22T12:28:03;33.50;79.90
45012;DHT22;63444;48.148;11.542;2023-06-22T12:30:30;33.50;79.80
45012;DHT22;63444;48.148;11.542;2023-06-22T12:32:55;33.50;79.50
45012;DHT22;63444;48.148;11.542;2023-06-22T12:35:21;33.60;80.00
45012;DHT22;63444;48.148;11.542;2023-06-22T12:37:46;33.50;80.00
45012;DHT22;63444;48.148;11.542;2023-06-22T12:40:12;33.50;80.30
45012;DHT22;63444;48.148;11.542;2023-06-22T12:42:38;33.50;80.10
45012;DHT22;63444;48.148;11.542;2023-06-22T12:45:04;33.50;80.20
45012;DHT22;63444;48.148;11.542;2023-06-22T12:47:30;33.50;80.50
45012;DHT22;63444;48.148;11.542;2023-06-22T12:49:55;33.40;80.30
45012;DHT22;63444;48.148;11.542;2023-06-22T12:52:21;33.50;80.40
45012;DHT22;63444;48.148;11.542;2023-06-22T12:54:47;33.40;80.20
45012;DHT22;63444;48.148;11.542;2023-06-22T12:57:13;33.40;79.90
45012;DHT22;63444;48.148;11.542;2023-06-22T12:59:39;33.40;80.20
45012;DHT22;63444;48.148;11.542;2023-06-22T13:02:05;33.40;80.60
45012;DHT22;63444;48.148;11.542;2023-06-22T13:04:31;33.40;80.70
45012;DHT22;63444;48.148;11.542;2023-06-22T13:06:56;33.40;80.20
45012;DHT22;63444;48.148;11.542;2023-06-22T13:09:22;33.40;80.10
45012;DHT22;63444;48.148;11.542;2023-06-22T13:11:47;33.50;80.60
45012;DHT22;63444;48.148;11.542;2023-06-22T13:14:13;33.50;80.90
45012;DHT22;63444;48.148;11.542;2023-06-22T13:16:38;33.50;80.30
45012;DHT22;63444;48.148;11.542;2023-06-22T13:19:04;33.50;79.70
45012;DHT22;63444;48.148;11.542;2023-06-22T13:21:30;33.50;79.80
45012;DHT22;63444;48.148;11.542;2023-06-22T13:23:56;33.60;80.60
45012;DHT22;63444;48.148;11.542;2023-06-22T13:26:22;33.50;80.30
45012;DHT22;63444;48.148;11.542;2023-06-22T13:28:48;33.60;80.20
45012;DHT22;63444;48.148;11.542;2023-06-22T13:31:13;33.60;80.80
45012;DHT22;63444;48.148;11.542;2023-06-22T13:33:39;33.70;80.30
45012;DHT22;63444;48.148;11.542;2023-06-22T13:36:06;33.60;79.80
45012;DHT22;63444;48.148;11.542;2023-06-22T13:38:34;33.70;80.60
45012;DHT22;63444;48.148;11.542;2023-06-22T13:41:00;33.60;79.80
45012;DHT22;63444;48.148;11.542;2023-06-22T13:43:27;33.70;80.30
45012;DHT22;63444;48.148;11.542;2023-06-22T13:45:53;33.70;80.60
45012;DHT22;63444;48.148;11.542;2023-06-22T13:48:18;33.70;80.50
45012;DHT22;63444;48.148;11.542;2023-06-22T13:50:44;33.70;80.50
45012;DHT22;63444;48.148;11.542;2023-06-22T13:53:10;33.70;80.60
45012;DHT22;63444;48.148;11.542;2023-06-22T13:55:35;33.70;80.60
45012;DHT22;63444;48.148;11.542;2023-06-22T13:58:01;33.70;80.10
45012;DHT22;63444;48.148;11.542;2023-06-22T14:00:26;33.60;80.00
45012;DHT22;63444;48.148;11.542;2023-06-22T14:02:53;33.60;80.40
45012;DHT22;63444;48.148;11.542;2023-06-22T14:05:19;33.70;80.70
45012;DHT22;63444;48.148;11.542;2023-06-22T14:07:45;33.70;80.40
45012;DHT22;63444;48.148;11.542;2023-06-22T14:10:11;33.60;80.30
45012;DHT22;63444;48.148;11.542;2023-06-22T14:12:36;33.70;80.40
45012;DHT22;63444;48.148;11.542;2023-06-22T14:15:02;33.70;79.70
45012;DHT22;63444;48.148;11.542;2023-06-22T14:17:28;33.70;79.70
45012;DHT22;63444;48.148;11.542;2023-06-22T14:19:53;33.70;78.80
45012;DHT22;63444;48.148;11.542;2023-06-22T14:22:20;33.70;79.10
45012;DHT22;63444;48.148;11.542;2023-06-22T14:24:46;33.70;79.40
45012;DHT22;63444;48.148;11.542;2023-06-22T14:27:12;33.70;79.00
45012;DHT22;63444;48.148;11.542;2023-06-22T14:29:38;33.60;79.10
45012;DHT22;63444;48.148;11.542;2023-06-22T14:32:03;33.70;78.60
45012;DHT22;63444;48.148;11.542;2023-06-22T14:34:31;33.70;78.10
45012;DHT22;63444;48.148;11.542;2023-06-22T14:36:57;33.60;78.10
45012;DHT22;63444;48.148;11.542;2023-06-22T14:39:23;33.70;77.60
45012;DHT22;63444;48.148;11.542;2023-06-22T14:41:49;33.70;77.40
45012;DHT22;63444;48.148;11.542;2023-06-22T14:44:15;33.70;77.00
45012;DHT22;63444;48.148;11.542;2023-06-22T14:46:40;33.70;77.60
45012;DHT22;63444;48.148;11.542;2023-06-22T14:49:06;33.70;76.70
45012;DHT22;63444;48.148;11.542;2023-06-22T14:51:32;33.70;74.90
45012;DHT22;63444;48.148;11.542;2023-06-22T14:53:57;33.70;74.90
45012;DHT22;63444;48.148;11.542;2023-06-22T14:56:23;33.70;75.10
45012;DHT22;63444;48.148;11.542;2023-06-22T14:58:48;33.70;75.30
45012;DHT22;63444;48.148;11.542;2023-06-22T15:01:16;33.70;74.80
45012;DHT22;63444;48.148;11.542;2023-06-22T15:03:42;33.70;75.20
45012;DHT22;63444;48.148;11.542;2023-06-22T15:06:09;33.70;75.60
45012;DHT22;63444;48.148;11.542;2023-06-22T15:08:36;33.80;75.30
45012;DHT22;63444;48.148;11.542;2023-06-22T15:11:02;33.80;73.20
45012;DHT22;63444;48.148;11.542;2023-06-22T15:13:29;33.80;72.50
45012;DHT22;63444;48.148;11.542;2023-06-22T15:15:57;33.80;72.50